Time;durP1;ratioP1;P1;durP2;ratioP2;P2;SDS_P1;SDS_P2;PMS_P1;PMS_P2;Temp;Humidity;BMP_temperature;BMP_pressure;BME280_temperature;BME280_humidity;BME280_pressure;Samples;Min_cycle;Max_cycle;Signal;HPM_P1;HPM_P2
2021/08/30 00:06:37;1106937.00;3.69;1922.83;2540.00;0.01;5.02;;;;;19.60;1.30;;;;;;2531421;56;1040;-89
2021/08/30 00:09:15;307508.00;1.03;530.83;72438.00;0.24;125.97;;;;;19.10;1.70;;;;;;2531794;56;1533;-89
2021/08/30 00:11:45;688051.00;2.29;1186.52;72217.00;0.24;125.59;;;;;19.20;3.60;;;;;;2542465;56;1524;-89
2021/08/30 00:14:45;488104.00;1.63;841.35;133205.00;0.44;230.86;;;;;19.20;2.70;;;;;;2551868;56;1122;-88
2021/08/30 00:17:22;861151.00;2.87;1487.99;0.00;0.00;0.62;;;;;19.30;2.80;;;;;;2545125;56;1037;-89
2021/08/30 00:20:27;240972.00;0.80;416.42;0.00;0.00;0.62;;;;;19.00;3.00;;;;;;2551988;56;1906;-89
2021/08/30 00:22:54;401443.00;1.34;692.29;0.00;0.00;0.62;;;;;18.70;4.60;;;;;;2551967;56;1609;-89
2021/08/30 00:25:23;420532.00;1.40;725.11;0.00;0.00;0.62;;;;;18.60;5.10;;;;;;2552057;56;1735;-89
2021/08/30 00:28:30;324929.00;1.08;560.77;25551.00;0.09;44.88;;;;;18.80;5.40;;;;;;2552188;56;1681;-88
2021/08/30 00:30:57;735207.00;2.45;1268.35;157357.00;0.52;272.49;;;;;19.00;3.40;;;;;;2544868;56;1286;-89
2021/08/30 00:33:33;734720.00;2.45;1267.50;85466.00;0.28;148.48;;;;;18.80;4.60;;;;;;2549834;56;1549;-88
2021/08/30 00:36:02;358685.00;1.20;618.79;0.00;0.00;0.62;;;;;18.70;5.20;;;;;;2552245;56;1510;-89
2021/08/30 00:38:42;;;;;;;;;;;;;;;;;;;;;
2021/08/30 00:41:20;391362.00;1.30;674.96;80666.00;0.27;140.19;;;;;18.60;5.10;;;;;;2578380;55;1328;-89
2021/08/30 00:43:47;553027.00;1.84;953.18;77780.00;0.26;135.20;;;;;18.50;5.10;;;;;;2578426;55;968;-87
2021/08/30 00:46:24;559794.00;1.87;964.85;72720.00;0.24;126.46;;;;;18.50;5.10;;;;;;2578429;55;957;-89
2021/08/30 00:48:58;879290.00;2.93;1519.78;105083.00;0.35;182.34;;;;;18.40;5.10;;;;;;2576235;55;962;-88
2021/08/30 00:51:50;569854.00;1.90;982.20;78558.00;0.26;136.55;;;;;18.30;6.40;;;;;;2578314;55;1544;-88
2021/08/30 00:54:50;254912.00;0.85;440.40;0.00;0.00;0.62;;;;;18.30;6.90;;;;;;2578416;55;1232;-88
2021/08/30 00:57:36;404595.00;1.35;697.70;9420.00;0.03;16.94;;;;;18.50;5.80;;;;;;2575305;55;1039;-88
2021/08/30 01:00:50;;;;;;;;;;;;;;;;;;;;;
2021/08/30 01:06:55;656676.00;2.19;1132.19;0.00;0.00;0.62;;;;;18.70;5.60;;;;;;2554477;56;1170;-89
2021/08/30 02:06:25;297722.00;0.99;514.00;0.00;0.00;0.62;;;;;17.90;7.90;;;;;;2485513;57;1686;-88
2021/08/30 02:19:57;772018.00;2.57;1332.37;54965.00;0.18;95.77;;;;;19.20;3.00;;;;;;2506217;57;1902;-88
2021/08/30 02:22:41;902194.00;3.01;1559.97;32357.00;0.11;56.66;;;;;19.20;2.70;;;;;;2531244;56;1704;-89
2021/08/30 02:25:18;360965.00;1.20;622.71;0.00;0.00;0.62;;;;;19.40;3.20;;;;;;2532095;56;1071;-88
2021/08/30 02:28:11;254255.00;0.85;439.27;0.00;0.00;0.62;;;;;19.60;1.90;;;;;;2529983;56;1127;-88
2021/08/30 02:30:47;131306.00;0.44;227.58;0.00;0.00;0.62;;;;;19.60;1.50;;;;;;2532085;56;1278;-88
2021/08/30 02:33:39;420575.00;1.40;725.18;0.00;0.00;0.62;;;;;19.70;1.20;;;;;;2533839;56;1070;-88
2021/08/30 02:36:11;201589.00;0.67;348.66;0.00;0.00;0.62;;;;;19.60;1.40;;;;;;2547285;56;955;-88
2021/08/30 02:38:47;376365.00;1.25;649.18;0.00;0.00;0.62;;;;;19.60;1.30;;;;;;2554407;56;1118;-88
2021/08/30 02:41:29;338093.00;1.13;583.40;57824.00;0.19;100.71;;;;;19.50;1.70;;;;;;2562325;56;1958;-88
2021/08/30 02:44:16;;;;;;;;;;;;;;;;;;;;;
2021/08/30 02:46:48;183661.00;0.61;317.79;0.00;0.00;0.62;;;;;19.70;1.70;;;;;;2562314;56;1277;-88
2021/08/30 02:49:17;393218.00;1.31;678.15;105683.00;0.35;183.38;;;;;19.70;1.70;;;;;;2562402;56;1431;-88
2021/08/30 02:52:05;;;;;;;;;;;;;;;;;;;;;
2021/08/30 02:54:48;584466.00;1.95;1007.41;96083.00;0.32;166.81;;;;;19.70;1.90;;;;;;2560173;56;1030;-88
2021/08/30 02:57:24;453122.00;1.51;781.15;0.00;0.00;0.62;;;;;19.70;2.20;;;;;;2570848;55;958;-89
2021/08/30 02:59:55;273702.00;0.91;472.71;3462.00;0.01;6.62;;;;;20.00;1.20;;;;;;2575974;55;1932;-88
2021/08/30 03:02:28;558362.00;1.86;962.38;0.00;0.00;0.62;;;;;19.70;1.60;;;;;;2578327;55;1391;-88
2021/08/30 03:05:10;539461.00;1.80;929.79;0.00;0.00;0.62;;;;;19.70;2.50;;;;;;2577221;55;1157;-88
2021/08/30 03:07:48;228161.00;0.76;394.38;0.00;0.00;0.62;;;;;19.80;1.00;;;;;;2578277;55;1701;-88
2021/08/30 03:10:15;320981.00;1.07;553.98;0.00;0.00;0.62;;;;;19.60;1.70;;;;;;2578096;55;1774;-88
2021/08/30 03:12:50;291761.00;0.97;503.76;0.00;0.00;0.62;;;;;19.20;2.20;;;;;;2576164;55;1069;-88
2021/08/30 03:15:32;310927.00;1.04;536.70;0.00;0.00;0.62;;;;;18.90;4.30;;;;;;2575937;55;1096;-89
2021/08/30 03:18:02;175804.00;0.59;304.26;0.00;0.00;0.62;;;;;18.70;4.10;;;;;;2576119;55;1205;-88
2021/08/30 03:20:40;362394.00;1.21;625.16;0.00;0.00;0.62;;;;;18.50;5.10;;;;;;2577490;55;1969;-88
2021/08/30 03:23:13;387587.00;1.29;668.47;26379.00;0.09;46.31;;;;;18.50;5.00;;;;;;2578067;55;1861;-89
2021/08/30 03:25:41;404369.00;1.35;697.32;0.00;0.00;0.62;;;;;18.30;5.90;;;;;;2578143;55;1638;-88
2021/08/30 03:28:16;338740.00;1.13;584.51;0.00;0.00;0.62;;;;;18.40;6.70;;;;;;2578306;55;965;-89
2021/08/30 03:30:47;438712.00;1.46;756.37;21841.00;0.07;38.46;;;;;18.40;6.70;;;;;;2578229;55;1258;-88
2021/08/30 03:33:17;254964.00;0.85;440.49;0.00;0.00;0.62;;;;;18.40;6.10;;;;;;2576043;55;1098;-90
2021/08/30 03:35:50;256678.00;0.86;443.44;0.00;0.00;0.62;;;;;18.30;6.90;;;;;;2578248;55;945;-89
2021/08/30 03:38:26;211580.00;0.71;365.85;0.00;0.00;0.62;;;;;18.10;7.60;;;;;;2577632;55;1242;-89
2021/08/30 03:40:57;426232.00;1.42;734.91;0.00;0.00;0.62;;;;;18.40;7.20;;;;;;2578141;55;1896;-88
2021/08/30 03:43:26;349528.00;1.17;603.05;0.00;0.00;0.62;;;;;18.40;6.70;;;;;;2575952;55;1090;-89
2021/08/30 03:46:20;370837.00;1.24;639.68;0.00;0.00;0.62;;;;;18.40;6.50;;;;;;2578163;55;1636;-88
2021/08/30 03:48:53;510414.00;1.70;879.76;25245.00;0.08;44.35;;;;;18.30;6.40;;;;;;2578146;55;1585;-88
2021/08/30 03:51:36;;;;;;;;;;;;;;;;;;;;;
2021/08/30 03:54:09;665603.00;2.22;1147.64;68539.00;0.23;119.24;;;;;18.10;8.20;;;;;;2577607;55;1093;-88
2021/08/30 03:56:37;697244.00;2.32;1202.46;88095.00;0.29;153.02;;;;;18.20;8.00;;;;;;2577772;55;1583;-89
2021/08/30 03:59:10;671781.00;2.24;1158.34;81429.00;0.27;141.51;;;;;18.20;8.70;;;;;;2578079;55;958;-89
2021/08/30 04:01:40;795102.00;2.65;1372.58;83722.00;0.28;145.47;;;;;18.50;6.80;;;;;;2578263;55;1987;-89
2021/08/30 04:04:14;583891.00;1.95;1006.41;80607.00;0.27;140.09;;;;;18.20;7.40;;;;;;2569316;55;981;-89
2021/08/30 04:06:43;473611.00;1.58;816.40;0.00;0.00;0.62;;;;;18.50;6.90;;;;;;2575330;55;1023;-90
2021/08/30 04:09:17;410000.00;1.37;707.00;0.00;0.00;0.62;;;;;18.50;6.80;;;;;;2573466;55;910;-89
2021/08/30 04:11:45;505197.00;1.68;870.77;0.00;0.00;0.62;;;;;18.40;8.50;;;;;;2576009;55;1331;-90
2021/08/30 04:14:12;570191.00;1.90;982.78;0.00;0.00;0.62;;;;;18.70;5.90;;;;;;2578269;55;927;-89
2021/08/30 04:16:40;256316.00;0.85;442.81;0.00;0.00;0.62;;;;;18.70;6.40;;;;;;2578383;55;965;-90
2021/08/30 04:19:07;399264.00;1.33;688.54;0.00;0.00;0.62;;;;;18.80;5.30;;;;;;2578371;55;1552;-89
2021/08/30 04:21:36;494121.00;1.65;851.70;8677.00;0.03;15.66;;;;;18.80;6.20;;;;;;2578352;55;1954;-89
2021/08/30 04:24:03;460503.00;1.54;793.85;8400.00;0.03;15.18;;;;;18.90;6.10;;;;;;2578391;55;987;-89
2021/08/30 04:26:31;425593.00;1.42;733.81;6521.00;0.02;11.92;;;;;19.30;5.60;;;;;;2578400;55;971;-89
2021/08/30 04:28:58;536813.00;1.79;925.23;0.00;0.00;0.62;;;;;19.50;3.50;;;;;;2576056;55;1130;-89
2021/08/30 04:31:25;540610.00;1.80;931.77;0.00;0.00;0.62;;;;;19.70;3.20;;;;;;2578361;55;1343;-88
2021/08/30 04:33:52;486776.00;1.62;839.06;3063.00;0.01;5.93;;;;;19.60;3.20;;;;;;2578411;55;967;-89
2021/08/30 04:36:19;711427.00;2.37;1227.06;0.00;0.00;0.62;;;;;19.60;3.60;;;;;;2576170;55;1074;-89
2021/08/30 04:38:46;457236.00;1.52;788.23;0.00;0.00;0.62;;;;;19.60;2.60;;;;;;2576190;55;1022;-90
2021/08/30 04:41:13;381431.00;1.27;657.89;0.00;0.00;0.62;;;;;19.80;2.40;;;;;;2578274;55;1902;-88
2021/08/30 04:43:42;633568.00;2.11;1092.22;0.00;0.00;0.62;;;;;19.80;2.90;;;;;;2576267;55;1274;-89
2021/08/30 04:46:09;665985.00;2.22;1148.30;14659.00;0.05;26.02;;;;;19.50;3.50;;;;;;2578295;55;1557;-89
2021/08/30 04:48:36;825114.00;2.75;1424.96;48214.00;0.16;84.10;;;;;19.40;3.90;;;;;;2578267;55;1624;-90
2021/08/30 04:51:04;528929.00;1.76;911.65;5061.00;0.02;9.39;;;;;19.20;3.30;;;;;;2575413;55;1347;-89
2021/08/30 04:53:36;1074424.00;3.58;1864.74;62666.00;0.21;109.09;;;;;18.80;5.20;;;;;;2575311;55;951;-89
2021/08/30 04:56:04;666157.00;2.22;1148.60;0.00;0.00;0.62;;;;;18.90;5.10;;;;;;2569158;55;975;-89
2021/08/30 04:58:31;475591.00;1.59;819.81;4707.00;0.02;8.78;;;;;19.00;4.90;;;;;;2578305;55;906;-90
2021/08/30 05:00:59;466480.00;1.55;804.13;10568.00;0.04;18.93;;;;;19.00;5.30;;;;;;2573363;55;1900;-89
2021/08/30 05:03:26;583721.00;1.95;1006.12;0.00;0.00;0.62;;;;;19.20;4.90;;;;;;2576069;55;1011;-89
2021/08/30 05:05:53;850848.00;2.84;1469.95;45207.00;0.15;78.90;;;;;19.20;5.60;;;;;;2576085;55;1133;-90
2021/08/30 05:08:20;449114.00;1.50;774.26;60513.00;0.20;105.36;;;;;19.30;4.40;;;;;;2578230;55;1680;-90
2021/08/30 05:10:47;319004.00;1.06;550.59;0.00;0.00;0.62;;;;;19.30;4.50;;;;;;2579782;55;1333;-88
2021/08/30 05:13:22;446434.00;1.49;769.65;0.00;0.00;0.62;;;;;19.50;3.60;;;;;;2578180;55;966;-89
2021/08/30 05:15:49;665509.00;2.22;1147.48;7268.00;0.02;13.22;;;;;19.50;3.00;;;;;;2577659;55;1575;-89
2021/08/30 05:18:17;757556.00;2.53;1307.20;36589.00;0.12;63.99;;;;;19.70;3.50;;;;;;2576094;55;1050;-89
2021/08/30 05:20:49;677605.00;2.26;1168.42;15602.00;0.05;27.65;;;;;19.60;3.90;;;;;;2578223;55;1911;-88
2021/08/30 05:23:16;610268.00;2.03;1051.95;18425.00;0.06;32.54;;;;;19.70;3.00;;;;;;2578284;55;1675;-89
2021/08/30 05:25:43;638280.00;2.13;1100.36;39939.00;0.13;69.78;;;;;19.80;2.40;;;;;;2578362;55;925;-89
2021/08/30 05:28:10;578458.00;1.93;997.04;0.00;0.00;0.62;;;;;19.70;3.30;;;;;;2578209;55;1632;-90
2021/08/30 05:30:37;700740.00;2.34;1208.52;3970.00;0.01;7.50;;;;;19.80;2.50;;;;;;2578195;55;1634;-89
2021/08/30 05:33:05;468002.00;1.56;806.75;0.00;0.00;0.62;;;;;19.80;3.10;;;;;;2578353;55;928;-90
2021/08/30 05:35:33;405052.00;1.35;698.49;0.00;0.00;0.62;;;;;19.70;2.60;;;;;;2576136;55;931;-89
2021/08/30 05:38:00;471204.00;1.57;812.26;15489.00;0.05;27.46;;;;;19.50;3.80;;;;;;2578387;55;903;-90
2021/08/30 05:40:27;729472.00;2.43;1258.39;34736.00;0.12;60.78;;;;;19.30;4.00;;;;;;2575686;55;1961;-89
2021/08/30 05:42:54;593201.00;1.98;1022.48;20198.00;0.07;35.61;;;;;19.40;3.30;;;;;;2578339;55;1021;-89
2021/08/30 05:45:21;585790.00;1.95;1009.69;19233.00;0.06;33.94;;;;;19.40;4.70;;;;;;2578365;55;1233;-91
2021/08/30 05:47:48;743536.00;2.48;1282.82;13809.00;0.05;24.55;;;;;19.40;4.00;;;;;;2578239;55;1552;-90
2021/08/30 05:50:15;682577.00;2.28;1177.04;0.00;0.00;0.62;;;;;19.50;4.00;;;;;;2578304;55;1277;-90
2021/08/30 05:52:44;768332.00;2.56;1325.95;32389.00;0.11;56.72;;;;;19.70;3.90;;;;;;2578369;55;925;-89
2021/08/30 05:55:11;564011.00;1.88;972.12;24394.00;0.08;42.88;;;;;19.70;3.40;;;;;;2578341;55;1033;-92
2021/08/30 05:57:38;658675.00;2.20;1135.65;70483.00;0.23;122.60;;;;;19.80;3.30;;;;;;2578333;55;960;-90
2021/08/30 06:00:07;628461.00;2.09;1083.39;4483.00;0.01;8.39;;;;;19.70;3.80;;;;;;2576045;55;1908;-91
2021/08/30 06:02:34;513310.00;1.71;884.74;0.00;0.00;0.62;;;;;19.60;3.40;;;;;;2578336;55;945;-90
2021/08/30 06:05:01;424141.00;1.41;731.31;0.00;0.00;0.62;;;;;19.80;3.20;;;;;;2576016;55;1093;-89
2021/08/30 06:07:28;356161.00;1.19;614.45;21501.00;0.07;37.87;;;;;19.60;3.30;;;;;;2578271;55;956;-90
2021/08/30 06:09:56;934241.00;3.11;1616.34;95817.00;0.32;166.35;;;;;19.80;3.60;;;;;;2578093;55;1670;-89
2021/08/30 06:12:23;1143008.00;3.81;1987.51;6295.00;0.02;11.53;;;;;20.00;3.50;;;;;;2578043;55;1657;-89
2021/08/30 06:14:50;969160.00;3.23;1677.93;0.00;0.00;0.62;;;;;20.20;2.60;;;;;;2578119;55;1685;-90
2021/08/30 06:17:17;837340.00;2.79;1446.32;67905.00;0.23;118.14;;;;;20.40;2.50;;;;;;2578159;55;1551;-89
2021/08/30 06:19:47;996023.00;3.32;1725.43;26243.00;0.09;46.08;;;;;20.40;1.80;;;;;;2578099;55;1526;-89
2021/08/30 06:22:14;622666.00;2.08;1073.37;0.00;0.00;0.62;;;;;20.60;1.50;;;;;;2578000;55;1960;-89
2021/08/30 06:24:46;711980.00;2.37;1228.02;0.00;0.00;0.62;;;;;20.70;1.30;;;;;;2578165;55;1508;-90
2021/08/30 06:27:17;506379.00;1.69;872.81;3745.00;0.01;7.11;;;;;20.80;1.00;;;;;;2578124;55;1612;-90
2021/08/30 06:29:44;502915.00;1.68;866.84;0.00;0.00;0.62;;;;;21.00;1.00;;;;;;2578103;55;1545;-90
2021/08/30 06:32:11;832062.00;2.77;1437.10;81408.00;0.27;141.47;;;;;20.80;1.00;;;;;;2577976;55;1245;-91
2021/08/30 06:34:38;582069.00;1.94;1003.27;100948.00;0.34;175.21;;;;;20.90;1.10;;;;;;2578189;55;1255;-90
2021/08/30 06:37:06;674007.00;2.25;1162.19;0.00;0.00;0.62;;;;;20.90;1.10;;;;;;2578044;55;1523;-90
2021/08/30 06:39:33;581186.00;1.94;1001.75;34439.00;0.11;60.27;;;;;21.10;1.00;;;;;;2576261;55;1541;-91
2021/08/30 06:42:00;866532.00;2.89;1497.41;68684.00;0.23;119.49;;;;;21.30;1.00;;;;;;2578083;55;1956;-90
2021/08/30 06:44:32;976238.00;3.25;1690.43;88208.00;0.29;153.21;;;;;21.30;1.00;;;;;;2578166;55;1189;-89
2021/08/30 06:46:59;516365.00;1.72;890.00;12200.00;0.04;21.76;;;;;21.30;1.00;;;;;;2578142;55;1559;-89
2021/08/30 06:49:26;615201.00;2.05;1060.47;23495.00;0.08;41.32;;;;;21.40;1.00;;;;;;2578187;55;1703;-89
2021/08/30 06:51:53;421264.00;1.40;726.36;0.00;0.00;0.62;;;;;21.40;1.00;;;;;;2575935;55;1260;-90
2021/08/30 06:54:20;394072.00;1.31;679.61;0.00;0.00;0.62;;;;;21.50;1.00;;;;;;2578185;55;1588;-88
2021/08/30 06:56:50;441584.00;1.47;761.31;0.00;0.00;0.62;;;;;21.50;1.00;;;;;;2578171;55;1571;-90
2021/08/30 06:59:17;502149.00;1.67;865.52;42107.00;0.14;73.53;;;;;21.50;1.00;;;;;;2577984;55;909;-89
2021/08/30 07:01:46;603461.00;2.01;1040.20;57193.00;0.19;99.62;;;;;21.40;1.00;;;;;;2578030;55;1893;-90
2021/08/30 07:04:13;647967.00;2.16;1117.12;24538.00;0.08;43.13;;;;;21.60;1.00;;;;;;2578069;55;1522;-90
2021/08/30 07:06:40;385176.00;1.28;664.32;0.00;0.00;0.62;;;;;21.70;1.00;;;;;;2575935;55;1015;-90
2021/08/30 07:09:07;568688.00;1.90;980.18;0.00;0.00;0.62;;;;;21.80;1.00;;;;;;2578107;55;981;-90
2021/08/30 07:11:34;648683.00;2.16;1118.36;44929.00;0.15;78.42;;;;;21.70;1.00;;;;;;2578108;55;1632;-90
2021/08/30 07:14:01;695990.00;2.32;1200.29;13627.00;0.05;24.23;;;;;21.80;1.00;;;;;;2575898;55;1098;-91
2021/08/30 07:16:29;779419.00;2.60;1345.25;93016.00;0.31;161.52;;;;;22.00;1.00;;;;;;2578045;55;1643;-88
2021/08/30 07:18:59;479576.00;1.60;826.67;64663.00;0.22;112.54;;;;;21.90;1.00;;;;;;2578092;55;1640;-88
2021/08/30 07:21:28;335416.00;1.12;578.79;0.00;0.00;0.62;;;;;21.70;1.00;;;;;;2577951;55;1975;-89
2021/08/30 07:23:55;408035.00;1.36;703.62;0.00;0.00;0.62;;;;;21.70;1.00;;;;;;2578209;55;1133;-89
2021/08/30 07:26:22;518608.00;1.73;893.87;0.00;0.00;0.62;;;;;21.50;1.00;;;;;;2578154;55;1626;-89
2021/08/30 07:28:51;675921.00;2.25;1165.51;0.00;0.00;0.62;;;;;21.50;1.00;;;;;;2578115;55;1397;-88
2021/08/30 07:31:18;935891.00;3.12;1619.25;23769.00;0.08;41.80;;;;;21.60;1.00;;;;;;2575929;55;1332;-88
2021/08/30 07:33:46;653053.00;2.18;1125.92;46870.00;0.16;81.77;;;;;21.80;1.00;;;;;;2576101;55;1110;-88
2021/08/30 07:36:15;583357.00;1.94;1005.49;74822.00;0.25;130.09;;;;;21.80;1.00;;;;;;2578400;55;931;-88
2021/08/30 07:38:44;590037.00;1.97;1017.02;59001.00;0.20;102.75;;;;;21.80;1.00;;;;;;2578476;55;952;-88
2021/08/30 07:41:11;186939.00;0.62;323.44;0.00;0.00;0.62;;;;;22.00;1.00;;;;;;2578239;55;1903;-91
2021/08/30 07:43:52;243324.00;0.81;420.47;56268.00;0.19;98.02;;;;;22.20;1.00;;;;;;2578391;55;1569;-89
2021/08/30 07:46:22;277868.00;0.93;479.87;0.00;0.00;0.62;;;;;22.40;1.00;;;;;;2578443;55;1073;-90
2021/08/30 07:48:50;283546.00;0.95;489.63;0.00;0.00;0.62;;;;;22.30;1.00;;;;;;2576208;55;941;-89
2021/08/30 07:51:19;258314.00;0.86;446.25;0.00;0.00;0.62;;;;;22.30;1.00;;;;;;2578363;55;1580;-89
2021/08/30 07:53:46;295380.00;0.98;509.98;0.00;0.00;0.62;;;;;22.40;1.00;;;;;;2578485;55;983;-89
2021/08/30 07:56:49;302474.00;1.01;522.17;0.00;0.00;0.62;;;;;22.20;1.00;;;;;;2578491;55;1044;-89
2021/08/30 07:59:31;226025.00;0.75;390.71;0.00;0.00;0.62;;;;;22.00;1.00;;;;;;2578493;55;1205;-89
2021/08/30 08:02:13;335047.00;1.12;578.16;9980.00;0.03;17.91;;;;;21.90;1.00;;;;;;2578284;55;1957;-91
2021/08/30 08:04:46;186985.00;0.62;323.52;0.00;0.00;0.62;;;;;21.90;1.00;;;;;;2578395;55;1696;-89
2021/08/30 08:07:17;245811.00;0.82;424.75;59981.00;0.20;104.44;;;;;21.90;1.00;;;;;;2562458;56;972;-89
2021/08/30 08:09:45;183114.00;0.61;316.85;0.00;0.00;0.62;;;;;22.00;1.00;;;;;;2562450;56;1407;-89
2021/08/30 08:12:14;214396.00;0.71;370.70;0.00;0.00;0.62;;;;;21.80;1.00;;;;;;2562765;56;1420;-89
2021/08/30 08:14:41;203863.00;0.68;352.57;0.00;0.00;0.62;;;;;21.80;1.00;;;;;;2567440;56;1022;-90
2021/08/30 08:17:18;;;;;;;;;;;;;;;;;;;;;
2021/08/30 08:19:45;294434.00;0.98;508.35;0.00;0.00;0.62;;;;;21.40;1.00;;;;;;2565361;56;1616;-90
2021/08/30 08:22:14;274294.00;0.91;473.73;0.00;0.00;0.62;;;;;21.30;1.00;;;;;;2567617;56;1889;-90
2021/08/30 08:24:41;241188.00;0.80;416.79;0.00;0.00;0.62;;;;;21.20;1.00;;;;;;2569969;55;1023;-90
2021/08/30 08:27:08;208124.00;0.69;359.91;0.00;0.00;0.62;;;;;21.20;1.00;;;;;;2578523;55;1102;-89
2021/08/30 08:29:35;160071.00;0.53;277.16;0.00;0.00;0.62;;;;;21.20;1.00;;;;;;2578500;55;1701;-88
2021/08/30 08:32:02;235522.00;0.79;407.05;0.00;0.00;0.62;;;;;21.20;1.00;;;;;;2578461;55;1248;-89
2021/08/30 08:34:31;266886.00;0.89;460.99;0.00;0.00;0.62;;;;;21.40;1.00;;;;;;2578565;55;920;-90
2021/08/30 08:37:04;50803.00;0.17;88.57;0.00;0.00;0.62;;;;;21.20;1.00;;;;;;2576361;55;1053;-89
2021/08/30 08:39:34;220273.00;0.73;380.81;0.00;0.00;0.62;;;;;21.10;1.00;;;;;;2576340;55;1119;-90
2021/08/30 08:42:02;207704.00;0.69;359.18;0.00;0.00;0.62;;;;;21.20;1.00;;;;;;2576357;55;1945;-90
2021/08/30 08:44:32;358010.00;1.19;617.63;0.00;0.00;0.62;;;;;21.40;1.00;;;;;;2578567;55;1548;-90
2021/08/30 08:47:00;199854.00;0.67;345.67;0.00;0.00;0.62;;;;;21.40;1.00;;;;;;2576419;55;1014;-91
2021/08/30 08:49:27;225972.00;0.75;390.62;0.00;0.00;0.62;;;;;21.50;1.00;;;;;;2578564;55;1576;-90
2021/08/30 08:51:54;105221.00;0.35;182.58;0.00;0.00;0.62;;;;;21.50;1.00;;;;;;2578669;55;1310;-90
2021/08/30 08:54:21;242319.00;0.81;418.74;0.00;0.00;0.62;;;;;21.40;1.00;;;;;;2578646;55;1469;-91
2021/08/30 08:56:54;259929.00;0.87;449.03;0.00;0.00;0.62;;;;;21.30;1.00;;;;;;2578685;55;1102;-90
2021/08/30 08:59:25;182074.00;0.61;315.06;0.00;0.00;0.62;;;;;21.20;1.00;;;;;;2578725;55;1100;-90
2021/08/30 09:01:58;208825.00;0.70;361.11;0.00;0.00;0.62;;;;;21.10;1.00;;;;;;2578591;55;1949;-89
2021/08/30 09:04:31;163039.00;0.54;282.28;0.00;0.00;0.62;;;;;21.20;1.00;;;;;;2578725;55;722;-91
2021/08/30 09:07:09;175473.00;0.58;303.69;0.00;0.00;0.62;;;;;21.40;1.00;;;;;;2562574;56;1010;-90
2021/08/30 09:09:38;276588.00;0.92;477.67;78783.00;0.26;136.94;;;;;21.70;1.00;;;;;;2560527;56;1083;-90
2021/08/30 09:12:19;267837.00;0.89;462.62;0.00;0.00;0.62;;;;;22.00;1.00;;;;;;2562723;56;1582;-90
2021/08/30 09:14:50;398908.00;1.33;687.93;66290.00;0.22;115.35;;;;;22.00;1.00;;;;;;2567630;56;1650;-90
2021/08/30 09:17:18;428727.00;1.43;739.20;80718.00;0.27;140.28;;;;;22.20;1.00;;;;;;2567661;56;1554;-91
2021/08/30 09:19:46;559973.00;1.87;965.15;77288.00;0.26;134.35;;;;;22.20;1.00;;;;;;2567591;56;1416;-91
2021/08/30 09:22:16;215648.00;0.72;372.85;0.00;0.00;0.62;;;;;21.80;1.00;;;;;;2567462;56;1906;-90
2021/08/30 09:25:00;516625.00;1.72;890.45;76008.00;0.25;132.14;;;;;21.90;1.00;;;;;;2573269;55;1493;-90
2021/08/30 09:27:52;449609.00;1.50;775.11;80060.00;0.27;139.14;;;;;22.00;1.00;;;;;;2583728;55;1667;-90
2021/08/30 09:30:26;921402.00;3.07;1593.74;77551.00;0.26;134.81;;;;;22.00;1.00;;;;;;2572778;55;1395;-90
2021/08/30 09:32:54;852056.00;2.84;1472.07;3523.00;0.01;6.73;;;;;21.80;1.00;;;;;;2572844;55;1590;-91
2021/08/30 09:35:22;950988.00;3.17;1645.85;50362.00;0.17;87.81;;;;;22.00;1.00;;;;;;2572910;55;1526;-92
2021/08/30 09:38:18;680697.00;2.27;1173.78;51042.00;0.17;88.99;;;;;21.80;1.00;;;;;;2572794;55;1403;-90
2021/08/30 09:40:49;317618.00;1.06;548.20;52406.00;0.17;91.35;;;;;21.40;1.00;;;;;;2569393;56;1655;-91
2021/08/30 09:43:29;271588.00;0.91;469.07;0.00;0.00;0.62;;;;;21.40;1.00;;;;;;2572122;55;1907;-90
2021/08/30 09:46:08;195385.00;0.65;337.98;0.00;0.00;0.62;;;;;21.80;1.00;;;;;;2572830;55;964;-90
2021/08/30 09:48:38;376551.00;1.26;649.50;0.00;0.00;0.62;;;;;22.20;1.00;;;;;;2572633;55;1497;-91
2021/08/30 09:51:13;190839.00;0.64;330.15;0.00;0.00;0.62;;;;;22.70;1.00;;;;;;2572766;55;1537;-91
2021/08/30 09:53:50;150548.00;0.50;260.75;0.00;0.00;0.62;;;;;23.20;1.00;;;;;;2572803;55;1524;-91
2021/08/30 09:56:22;149168.00;0.50;258.37;0.00;0.00;0.62;;;;;23.50;1.00;;;;;;2583694;55;883;-90
2021/08/30 09:59:01;253497.00;0.84;437.97;0.00;0.00;0.62;;;;;24.00;1.00;;;;;;2583580;55;1691;-88
2021/08/30 10:01:28;698991.00;2.33;1205.49;10026.00;0.03;17.99;;;;;23.90;1.00;;;;;;2583393;55;1914;-90
2021/08/30 10:03:56;146985.00;0.49;254.61;0.00;0.00;0.62;;;;;23.60;1.00;;;;;;2583587;55;964;-90
2021/08/30 10:06:24;108905.00;0.36;188.94;0.00;0.00;0.62;;;;;23.60;1.00;;;;;;2583586;55;1618;-89
2021/08/30 10:08:51;242728.00;0.81;419.44;0.00;0.00;0.62;;;;;23.40;1.00;;;;;;2581437;55;978;-91
2021/08/30 10:11:21;306927.00;1.02;529.83;46806.00;0.16;81.66;;;;;23.50;1.00;;;;;;2583421;55;1518;-90
2021/08/30 10:13:48;192043.00;0.64;332.23;0.00;0.00;0.62;;;;;23.50;1.00;;;;;;2579484;55;1654;-89
2021/08/30 10:16:20;258648.00;0.86;446.82;17706.00;0.06;31.30;;;;;23.50;1.00;;;;;;2578255;55;1554;-90
2021/08/30 10:18:50;190113.00;0.63;328.90;0.00;0.00;0.62;;;;;23.70;1.00;;;;;;2576260;55;1047;-90
2021/08/30 10:21:19;126629.00;0.42;219.52;0.00;0.00;0.62;;;;;23.60;1.00;;;;;;2578250;55;1910;-89
2021/08/30 10:23:50;175252.00;0.58;303.31;0.00;0.00;0.62;;;;;23.40;1.00;;;;;;2578209;55;1495;-90
2021/08/30 10:26:22;500112.00;1.67;862.02;56190.00;0.19;97.89;;;;;23.50;1.00;;;;;;2578362;55;1094;-89
2021/08/30 10:28:56;168381.00;0.56;291.48;0.00;0.00;0.62;;;;;23.30;1.00;;;;;;2578386;55;1536;-91
2021/08/30 10:31:26;74610.00;0.25;129.73;0.00;0.00;0.62;;;;;23.00;1.00;;;;;;2578296;55;1703;-90
2021/08/30 10:33:56;159459.00;0.53;276.11;0.00;0.00;0.62;;;;;22.70;1.00;;;;;;2576175;55;1028;-91
2021/08/30 10:36:30;236704.00;0.79;409.08;43674.00;0.15;76.24;;;;;22.70;1.00;;;;;;2578490;55;963;-90
2021/08/30 10:39:08;277111.00;0.92;478.57;0.00;0.00;0.62;;;;;22.50;1.00;;;;;;2578424;55;1234;-90
2021/08/30 10:41:47;212496.00;0.71;367.43;0.00;0.00;0.62;;;;;22.10;1.00;;;;;;2577924;55;1899;-89
2021/08/30 10:44:18;110950.00;0.37;192.47;0.00;0.00;0.62;;;;;21.90;1.00;;;;;;2575430;55;1757;-91
2021/08/30 10:46:50;201226.00;0.67;348.03;0.00;0.00;0.62;;;;;21.90;1.00;;;;;;2572693;55;935;-89
2021/08/30 10:49:27;166200.00;0.55;287.72;0.00;0.00;0.62;;;;;21.90;1.00;;;;;;2572762;55;999;-90
2021/08/30 10:52:11;289861.00;0.97;500.49;0.00;0.00;0.62;;;;;22.00;1.00;;;;;;2572649;55;1637;-90
2021/08/30 10:54:50;191286.00;0.64;330.92;0.00;0.00;0.62;;;;;21.90;1.00;;;;;;2572673;55;1564;-89
2021/08/30 10:57:32;247115.00;0.82;426.99;0.00;0.00;0.62;;;;;21.60;1.00;;;;;;2572695;55;987;-90
2021/08/30 11:00:15;228991.00;0.76;395.81;0.00;0.00;0.62;;;;;21.40;1.00;;;;;;2570445;56;1074;-90
2021/08/30 11:03:13;454402.00;1.51;783.35;68891.00;0.23;119.84;;;;;21.80;1.00;;;;;;2572520;55;1890;-90
2021/08/30 11:05:48;1052116.00;3.51;1825.00;161748.00;0.54;280.05;;;;;22.10;1.00;;;;;;2577367;55;1063;-90
2021/08/30 11:08:20;972312.00;3.24;1683.49;113214.00;0.38;196.38;;;;;22.10;1.00;;;;;;2577932;55;867;-91
2021/08/30 11:10:53;800706.00;2.67;1382.35;55076.00;0.18;95.96;;;;;22.10;1.00;;;;;;2565017;55;1443;-91
2021/08/30 11:13:25;1028303.00;3.43;1782.66;165544.00;0.55;286.59;;;;;22.00;1.00;;;;;;2569478;55;985;-90
2021/08/30 11:15:52;777217.00;2.59;1341.42;43279.00;0.14;75.56;;;;;22.10;1.00;;;;;;2570166;55;982;-90
2021/08/30 11:18:23;1031691.00;3.44;1788.68;76000.00;0.25;132.13;;;;;22.30;1.00;;;;;;2570393;56;1067;-90
2021/08/30 11:20:50;876044.00;2.92;1514.08;116831.00;0.39;202.62;;;;;22.40;1.00;;;;;;2572632;55;1525;-90
2021/08/30 11:23:21;117761232.00;392.54;66151424.00;72656.00;0.24;126.35;;;;;22.50;1.00;;;;;;2572415;55;1966;-90
2021/08/30 11:26:11;227156.00;0.76;392.66;0.00;0.00;0.62;;;;;22.60;1.00;;;;;;2572633;55;1053;-91
2021/08/30 11:28:40;382884.00;1.28;660.38;0.00;0.00;0.62;;;;;22.60;1.00;;;;;;2572475;55;1446;-90
2021/08/30 11:31:10;323176.00;1.08;557.76;0.00;0.00;0.62;;;;;22.50;1.00;;;;;;2576314;55;1482;-90